This is the latest recevied weather packets stored in our database for station/object OK1FPA-15. If no packets are shown the sender has not sent any weather packets the latest 10 day(s).
| Time | Temp. | Humidity | Pressure | Rain* | Wind** | Luminosity | Snow |
|---|---|---|---|---|---|---|---|
| 1777700851 | 6.67° C | 75% | 1026.4 hPa | - | - | - | - |
| 1777700251 | 6.11° C | 76% | 1026.5 hPa | - | - | - | - |
| 1777699651 | 6.11° C | 76% | 1026.3 hPa | - | - | - | - |
| 1777699051 | 6.11° C | 75% | 1026.4 hPa | - | - | - | - |
| 1777698451 | 6.11° C | 75% | 1026.4 hPa | - | - | - | - |
| 1777697851 | 6.11° C | 75% | 1026.5 hPa | - | - | - | - |
| 1777697251 | 6.11° C | 75% | 1026.4 hPa | - | - | - | - |
| 1777696651 | 5.56° C | 78% | 1026.4 hPa | - | - | - | - |
| 1777696051 | 4.44° C | 82% | 1026.4 hPa | - | - | - | - |
| 1777695451 | 3.89° C | 84% | 1026.3 hPa | - | - | - | - |
| 1777694851 | 3.33° C | 84% | 1026.4 hPa | - | - | - | - |
| 1777694251 | 3.33° C | 84% | 1026.3 hPa | - | - | - | - |
| 1777693651 | 3.33° C | 84% | 1026.2 hPa | - | - | - | - |
| 1777693051 | 3.33° C | 83% | 1026.3 hPa | - | - | - | - |
| 1777692451 | 3.89° C | 84% | 1026.4 hPa | - | - | - | - |
| 1777691851 | 3.89° C | 84% | 1026.5 hPa | - | - | - | - |
| 1777691251 | 3.89° C | 83% | 1026.5 hPa | - | - | - | - |
| 1777690651 | 3.89° C | 83% | 1026.5 hPa | - | - | - | - |
| 1777690051 | 3.89° C | 83% | 1026.5 hPa | - | - | - | - |
| 1777689451 | 3.89° C | 82% | 1026.5 hPa | - | - | - | - |
| 1777688851 | 4.44° C | 81% | 1026.5 hPa | - | - | - | - |
| 1777688251 | 4.44° C | 81% | 1026.6 hPa | - | - | - | - |
| 1777687651 | 4.44° C | 81% | 1026.5 hPa | - | - | - | - |
| 1777687051 | 4.44° C | 80% | 1026.6 hPa | - | - | - | - |
| 1777686451 | 5° C | 80% | 1026.7 hPa | - | - | - | - |
* Rain since midnight (hover to see other rain measurements)
** Current wind speed in m/s (hover to see current wind gust speed)